Truro, Canada
Current Conditions -  °F | °C
As of 2:00 AM on Friday 19 Dec 2014 (Local Time) from CYHZ Reporting Station
Snow Showers Snow Showers  
Wind Chill: 23°   Ceiling: 800
Heat Index: 32°   Visibility: 6mi
Dew Point: 30°   Wind: 13mph
Humidity: 93%   Direction: 270°W
Pressure: 29.42"   Gusts: 20mph
Location:  45.37°N, 63.29°W
Report Text: CYHZ 190600Z 27011G17KT 6SM -SHSN BKN008 OVC020 M00/M01 A2942 RMK SF5SC3 CIG RDG SLP968
Loading
Personal Weather Stations






























Interactive Weather Map New forecast layout! Learn more

10-Day Weather Forecast

Advertisements
Track Severe Weather on mobile